Terminal Aerodrome Forecast
Issued by NWS Cleveland, OH

Home | Current Version | Previous Version | Text Only | Print | Product List | Glossary Off
Versions: 1 2 3 4 5 6 7 8 9 10 11 12 13 14 15 16

000
FTUS41 KCLE 250800 AAA
TAFCAK
TAF AMD
KCAK 250819Z 2508/2606 24012G22KT P6SM OVC025
      TEMPO 2510/2513 3SM -RASN BR
     FM252300 21008KT P6SM BKN025
     FM260400 20008KT P6SM SCT025=

USA.gov is the U.S. government's official web portal to all federal, state and local government web resources and services.